sensor_id;sensor_type;location;lat;lon;timestamp;P1;durP1;ratioP1;P2;durP2;ratioP2
23517;SDS011;11935;50.878;4.392;2022-11-20T00:01:31;35.85;;;20.95;;
23517;SDS011;11935;50.878;4.392;2022-11-20T00:03:57;34.97;;;20.48;;
23517;SDS011;11935;50.878;4.392;2022-11-20T00:06:23;30.42;;;19.83;;
23517;SDS011;11935;50.878;4.392;2022-11-20T00:08:50;30.02;;;20.38;;
23517;SDS011;11935;50.878;4.392;2022-11-20T00:11:18;32.40;;;20.60;;
23517;SDS011;11935;50.878;4.392;2022-11-20T00:13:46;33.75;;;21.75;;
23517;SDS011;11935;50.878;4.392;2022-11-20T00:16:14;38.13;;;21.77;;
23517;SDS011;11935;50.878;4.392;2022-11-20T00:18:40;34.27;;;21.77;;
23517;SDS011;11935;50.878;4.392;2022-11-20T00:21:26;42.63;;;21.40;;
23517;SDS011;11935;50.878;4.392;2022-11-20T00:23:53;35.40;;;20.95;;
23517;SDS011;11935;50.878;4.392;2022-11-20T00:26:19;35.83;;;20.45;;
23517;SDS011;11935;50.878;4.392;2022-11-20T00:28:49;36.25;;;21.70;;
23517;SDS011;11935;50.878;4.392;2022-11-20T00:31:16;43.30;;;24.13;;
23517;SDS011;11935;50.878;4.392;2022-11-20T00:33:43;39.75;;;22.88;;
23517;SDS011;11935;50.878;4.392;2022-11-20T00:36:10;39.30;;;23.85;;
23517;SDS011;11935;50.878;4.392;2022-11-20T00:38:36;37.10;;;21.60;;
23517;SDS011;11935;50.878;4.392;2022-11-20T00:41:04;43.30;;;23.65;;
23517;SDS011;11935;50.878;4.392;2022-11-20T00:43:30;38.60;;;22.23;;
23517;SDS011;11935;50.878;4.392;2022-11-20T00:46:06;40.00;;;23.65;;
23517;SDS011;11935;50.878;4.392;2022-11-20T00:48:33;36.25;;;20.80;;
23517;SDS011;11935;50.878;4.392;2022-11-20T00:50:59;39.20;;;23.77;;
23517;SDS011;11935;50.878;4.392;2022-11-20T00:53:25;43.35;;;23.98;;
23517;SDS011;11935;50.878;4.392;2022-11-20T00:58:20;38.65;;;23.85;;
23517;SDS011;11935;50.878;4.392;2022-11-20T01:00:46;41.88;;;24.70;;
23517;SDS011;11935;50.878;4.392;2022-11-20T01:03:14;43.33;;;25.75;;
23517;SDS011;11935;50.878;4.392;2022-11-20T01:05:41;48.95;;;28.27;;
23517;SDS011;11935;50.878;4.392;2022-11-20T01:08:07;44.92;;;25.25;;
23517;SDS011;11935;50.878;4.392;2022-11-20T01:10:33;44.90;;;27.08;;
23517;SDS011;11935;50.878;4.392;2022-11-20T01:12:59;69.72;;;41.03;;
23517;SDS011;11935;50.878;4.392;2022-11-20T01:15:44;44.60;;;25.98;;
23517;SDS011;11935;50.878;4.392;2022-11-20T01:18:10;44.88;;;25.70;;
23517;SDS011;11935;50.878;4.392;2022-11-20T01:20:36;47.22;;;27.20;;
23517;SDS011;11935;50.878;4.392;2022-11-20T01:23:02;46.63;;;28.02;;
23517;SDS011;11935;50.878;4.392;2022-11-20T01:25:29;52.47;;;28.67;;
23517;SDS011;11935;50.878;4.392;2022-11-20T01:27:55;44.95;;;27.13;;
23517;SDS011;11935;50.878;4.392;2022-11-20T01:30:21;48.40;;;27.52;;
23517;SDS011;11935;50.878;4.392;2022-11-20T01:32:47;51.58;;;28.67;;
23517;SDS011;11935;50.878;4.392;2022-11-20T01:35:13;52.13;;;27.90;;
23517;SDS011;11935;50.878;4.392;2022-11-20T01:37:39;54.45;;;28.15;;
23517;SDS011;11935;50.878;4.392;2022-11-20T01:40:06;60.40;;;30.38;;
23517;SDS011;11935;50.878;4.392;2022-11-20T01:42:32;55.00;;;30.08;;
23517;SDS011;11935;50.878;4.392;2022-11-20T01:48:02;51.33;;;27.98;;
23517;SDS011;11935;50.878;4.392;2022-11-20T01:50:28;50.85;;;30.52;;
23517;SDS011;11935;50.878;4.392;2022-11-20T01:55:22;55.85;;;31.27;;
23517;SDS011;11935;50.878;4.392;2022-11-20T01:57:49;52.65;;;31.95;;
23517;SDS011;11935;50.878;4.392;2022-11-20T02:00:17;48.83;;;29.92;;
23517;SDS011;11935;50.878;4.392;2022-11-20T02:02:47;54.63;;;32.15;;
23517;SDS011;11935;50.878;4.392;2022-11-20T02:07:45;60.20;;;32.88;;
23517;SDS011;11935;50.878;4.392;2022-11-20T02:10:12;54.22;;;31.80;;
23517;SDS011;11935;50.878;4.392;2022-11-20T02:12:38;56.88;;;30.70;;
23517;SDS011;11935;50.878;4.392;2022-11-20T02:15:23;60.55;;;33.00;;
23517;SDS011;11935;50.878;4.392;2022-11-20T02:17:49;56.58;;;31.85;;
23517;SDS011;11935;50.878;4.392;2022-11-20T02:20:15;54.33;;;31.52;;
23517;SDS011;11935;50.878;4.392;2022-11-20T02:22:45;59.00;;;32.30;;
23517;SDS011;11935;50.878;4.392;2022-11-20T02:25:14;51.40;;;29.58;;
23517;SDS011;11935;50.878;4.392;2022-11-20T02:27:40;56.30;;;29.73;;
23517;SDS011;11935;50.878;4.392;2022-11-20T02:30:06;61.85;;;31.75;;
23517;SDS011;11935;50.878;4.392;2022-11-20T02:32:34;60.88;;;30.70;;
23517;SDS011;11935;50.878;4.392;2022-11-20T02:36:01;58.05;;;32.58;;
23517;SDS011;11935;50.878;4.392;2022-11-20T02:37:58;53.53;;;30.42;;
23517;SDS011;11935;50.878;4.392;2022-11-20T02:42:57;57.50;;;30.25;;
23517;SDS011;11935;50.878;4.392;2022-11-20T02:45:23;58.47;;;32.42;;
23517;SDS011;11935;50.878;4.392;2022-11-20T02:47:50;64.82;;;32.13;;
23517;SDS011;11935;50.878;4.392;2022-11-20T02:50:16;56.47;;;30.45;;
23517;SDS011;11935;50.878;4.392;2022-11-20T02:52:42;56.20;;;29.63;;
23517;SDS011;11935;50.878;4.392;2022-11-20T02:55:08;47.47;;;25.65;;
23517;SDS011;11935;50.878;4.392;2022-11-20T02:57:35;42.53;;;23.58;;
23517;SDS011;11935;50.878;4.392;2022-11-20T03:00:01;39.22;;;22.88;;
23517;SDS011;11935;50.878;4.392;2022-11-20T03:02:30;41.72;;;24.90;;
23517;SDS011;11935;50.878;4.392;2022-11-20T03:04:56;40.38;;;22.15;;
23517;SDS011;11935;50.878;4.392;2022-11-20T03:07:22;39.38;;;22.60;;
23517;SDS011;11935;50.878;4.392;2022-11-20T03:09:49;39.13;;;22.63;;
23517;SDS011;11935;50.878;4.392;2022-11-20T03:12:15;41.88;;;23.10;;
23517;SDS011;11935;50.878;4.392;2022-11-20T03:14:41;39.67;;;23.50;;
23517;SDS011;11935;50.878;4.392;2022-11-20T03:17:07;41.03;;;22.60;;
23517;SDS011;11935;50.878;4.392;2022-11-20T03:19:33;39.88;;;23.00;;
23517;SDS011;11935;50.878;4.392;2022-11-20T03:21:59;37.45;;;21.38;;
23517;SDS011;11935;50.878;4.392;2022-11-20T03:24:25;36.10;;;21.73;;
23517;SDS011;11935;50.878;4.392;2022-11-20T03:26:51;39.90;;;22.00;;
23517;SDS011;11935;50.878;4.392;2022-11-20T03:29:17;40.92;;;22.10;;
23517;SDS011;11935;50.878;4.392;2022-11-20T03:31:43;36.95;;;20.48;;
23517;SDS011;11935;50.878;4.392;2022-11-20T03:34:10;38.38;;;20.90;;
23517;SDS011;11935;50.878;4.392;2022-11-20T03:36:38;41.28;;;20.92;;
23517;SDS011;11935;50.878;4.392;2022-11-20T03:39:04;35.97;;;20.58;;
23517;SDS011;11935;50.878;4.392;2022-11-20T03:41:30;42.55;;;22.17;;
23517;SDS011;11935;50.878;4.392;2022-11-20T03:43:58;39.92;;;20.75;;
23517;SDS011;11935;50.878;4.392;2022-11-20T03:46:24;37.70;;;22.67;;
23517;SDS011;11935;50.878;4.392;2022-11-20T03:48:51;37.92;;;20.35;;
23517;SDS011;11935;50.878;4.392;2022-11-20T03:53:43;36.50;;;20.00;;
23517;SDS011;11935;50.878;4.392;2022-11-20T03:56:10;35.78;;;19.83;;
23517;SDS011;11935;50.878;4.392;2022-11-20T03:58:37;37.45;;;20.50;;
23517;SDS011;11935;50.878;4.392;2022-11-20T04:01:07;39.58;;;20.13;;
23517;SDS011;11935;50.878;4.392;2022-11-20T04:03:34;41.67;;;21.50;;
23517;SDS011;11935;50.878;4.392;2022-11-20T04:06:17;43.15;;;22.73;;
23517;SDS011;11935;50.878;4.392;2022-11-20T04:08:44;38.25;;;21.65;;
23517;SDS011;11935;50.878;4.392;2022-11-20T04:11:14;41.40;;;21.63;;
23517;SDS011;11935;50.878;4.392;2022-11-20T04:13:40;37.60;;;21.35;;
23517;SDS011;11935;50.878;4.392;2022-11-20T04:16:07;39.00;;;21.55;;
23517;SDS011;11935;50.878;4.392;2022-11-20T04:18:33;40.03;;;21.50;;
23517;SDS011;11935;50.878;4.392;2022-11-20T04:20:59;39.78;;;22.10;;
23517;SDS011;11935;50.878;4.392;2022-11-20T04:23:26;44.17;;;23.35;;
23517;SDS011;11935;50.878;4.392;2022-11-20T04:25:52;41.03;;;22.08;;
23517;SDS011;11935;50.878;4.392;2022-11-20T04:28:18;46.10;;;23.67;;
23517;SDS011;11935;50.878;4.392;2022-11-20T04:30:44;43.25;;;23.30;;
23517;SDS011;11935;50.878;4.392;2022-11-20T04:33:10;44.30;;;22.23;;
23517;SDS011;11935;50.878;4.392;2022-11-20T04:35:37;41.78;;;23.10;;
23517;SDS011;11935;50.878;4.392;2022-11-20T04:38:03;44.67;;;22.55;;
23517;SDS011;11935;50.878;4.392;2022-11-20T04:40:29;46.30;;;22.95;;
23517;SDS011;11935;50.878;4.392;2022-11-20T04:42:56;43.70;;;22.73;;
23517;SDS011;11935;50.878;4.392;2022-11-20T04:45:22;42.97;;;24.00;;
23517;SDS011;11935;50.878;4.392;2022-11-20T04:47:48;45.58;;;23.23;;
23517;SDS011;11935;50.878;4.392;2022-11-20T04:50:14;46.78;;;23.58;;
23517;SDS011;11935;50.878;4.392;2022-11-20T04:52:41;51.67;;;25.58;;
23517;SDS011;11935;50.878;4.392;2022-11-20T04:55:07;48.08;;;24.75;;
23517;SDS011;11935;50.878;4.392;2022-11-20T04:57:33;57.45;;;25.60;;
23517;SDS011;11935;50.878;4.392;2022-11-20T04:59:59;55.25;;;27.05;;
23517;SDS011;11935;50.878;4.392;2022-11-20T05:02:25;53.25;;;26.48;;
23517;SDS011;11935;50.878;4.392;2022-11-20T05:04:50;54.60;;;24.80;;
23517;SDS011;11935;50.878;4.392;2022-11-20T05:07:16;50.58;;;24.92;;
23517;SDS011;11935;50.878;4.392;2022-11-20T05:09:42;53.60;;;25.67;;
23517;SDS011;11935;50.878;4.392;2022-11-20T05:12:08;52.75;;;25.70;;
23517;SDS011;11935;50.878;4.392;2022-11-20T05:14:34;52.22;;;24.08;;
23517;SDS011;11935;50.878;4.392;2022-11-20T05:17:01;56.75;;;27.08;;
23517;SDS011;11935;50.878;4.392;2022-11-20T05:19:26;57.25;;;26.05;;
23517;SDS011;11935;50.878;4.392;2022-11-20T05:21:53;58.63;;;25.25;;
23517;SDS011;11935;50.878;4.392;2022-11-20T05:24:19;57.92;;;26.40;;
23517;SDS011;11935;50.878;4.392;2022-11-20T05:26:45;61.58;;;26.95;;
23517;SDS011;11935;50.878;4.392;2022-11-20T05:29:11;59.10;;;26.75;;
23517;SDS011;11935;50.878;4.392;2022-11-20T05:31:38;58.70;;;26.30;;
23517;SDS011;11935;50.878;4.392;2022-11-20T05:34:04;56.83;;;27.58;;
23517;SDS011;11935;50.878;4.392;2022-11-20T05:36:31;53.65;;;25.45;;
23517;SDS011;11935;50.878;4.392;2022-11-20T05:38:57;58.30;;;25.48;;
23517;SDS011;11935;50.878;4.392;2022-11-20T05:41:23;56.63;;;25.63;;
23517;SDS011;11935;50.878;4.392;2022-11-20T05:43:49;54.20;;;26.65;;
23517;SDS011;11935;50.878;4.392;2022-11-20T05:46:16;56.13;;;26.42;;
23517;SDS011;11935;50.878;4.392;2022-11-20T05:48:43;55.40;;;26.10;;
23517;SDS011;11935;50.878;4.392;2022-11-20T05:51:10;54.00;;;25.73;;
23517;SDS011;11935;50.878;4.392;2022-11-20T05:53:36;54.58;;;26.02;;
23517;SDS011;11935;50.878;4.392;2022-11-20T05:56:04;60.08;;;25.38;;
23517;SDS011;11935;50.878;4.392;2022-11-20T05:58:30;54.67;;;25.48;;
23517;SDS011;11935;50.878;4.392;2022-11-20T06:01:30;55.92;;;25.27;;
23517;SDS011;11935;50.878;4.392;2022-11-20T06:03:50;51.28;;;27.02;;
23517;SDS011;11935;50.878;4.392;2022-11-20T06:06:17;60.63;;;27.25;;
23517;SDS011;11935;50.878;4.392;2022-11-20T06:08:43;54.50;;;25.58;;
23517;SDS011;11935;50.878;4.392;2022-11-20T06:11:10;56.83;;;25.80;;
23517;SDS011;11935;50.878;4.392;2022-11-20T06:13:37;57.93;;;25.93;;
23517;SDS011;11935;50.878;4.392;2022-11-20T06:16:03;59.60;;;25.15;;
23517;SDS011;11935;50.878;4.392;2022-11-20T06:18:30;58.50;;;25.75;;
23517;SDS011;11935;50.878;4.392;2022-11-20T06:21:15;55.88;;;25.08;;
23517;SDS011;11935;50.878;4.392;2022-11-20T06:23:41;56.25;;;25.05;;
23517;SDS011;11935;50.878;4.392;2022-11-20T06:26:09;62.63;;;27.67;;
23517;SDS011;11935;50.878;4.392;2022-11-20T06:28:35;58.85;;;28.95;;
23517;SDS011;11935;50.878;4.392;2022-11-20T06:31:01;57.13;;;26.48;;
23517;SDS011;11935;50.878;4.392;2022-11-20T06:33:27;59.33;;;24.48;;
23517;SDS011;11935;50.878;4.392;2022-11-20T06:35:57;55.90;;;26.27;;
23517;SDS011;11935;50.878;4.392;2022-11-20T06:38:24;55.25;;;24.52;;
23517;SDS011;11935;50.878;4.392;2022-11-20T06:40:50;58.08;;;27.00;;
23517;SDS011;11935;50.878;4.392;2022-11-20T06:43:16;58.17;;;26.52;;
23517;SDS011;11935;50.878;4.392;2022-11-20T06:45:42;65.47;;;27.63;;
23517;SDS011;11935;50.878;4.392;2022-11-20T06:48:08;67.13;;;27.13;;
23517;SDS011;11935;50.878;4.392;2022-11-20T06:50:36;66.05;;;27.98;;
23517;SDS011;11935;50.878;4.392;2022-11-20T06:53:02;67.30;;;27.02;;
23517;SDS011;11935;50.878;4.392;2022-11-20T06:55:29;58.05;;;25.83;;
23517;SDS011;11935;50.878;4.392;2022-11-20T06:57:55;62.05;;;26.25;;
23517;SDS011;11935;50.878;4.392;2022-11-20T07:00:21;63.38;;;27.15;;
23517;SDS011;11935;50.878;4.392;2022-11-20T07:02:47;63.95;;;28.30;;
23517;SDS011;11935;50.878;4.392;2022-11-20T07:05:13;58.83;;;27.02;;
23517;SDS011;11935;50.878;4.392;2022-11-20T07:07:39;60.28;;;28.05;;
23517;SDS011;11935;50.878;4.392;2022-11-20T07:10:05;64.75;;;26.58;;
23517;SDS011;11935;50.878;4.392;2022-11-20T07:12:31;61.70;;;28.15;;
23517;SDS011;11935;50.878;4.392;2022-11-20T07:14:57;52.83;;;24.02;;
23517;SDS011;11935;50.878;4.392;2022-11-20T07:17:23;59.05;;;26.75;;
23517;SDS011;11935;50.878;4.392;2022-11-20T07:19:49;59.78;;;27.35;;
23517;SDS011;11935;50.878;4.392;2022-11-20T07:22:15;61.78;;;26.35;;
23517;SDS011;11935;50.878;4.392;2022-11-20T07:24:41;62.88;;;26.73;;
23517;SDS011;11935;50.878;4.392;2022-11-20T07:27:08;66.53;;;28.77;;
23517;SDS011;11935;50.878;4.392;2022-11-20T07:29:34;62.08;;;26.65;;
23517;SDS011;11935;50.878;4.392;2022-11-20T07:32:00;55.65;;;25.90;;
23517;SDS011;11935;50.878;4.392;2022-11-20T07:34:26;59.55;;;26.30;;
23517;SDS011;11935;50.878;4.392;2022-11-20T07:36:52;58.63;;;27.25;;
23517;SDS011;11935;50.878;4.392;2022-11-20T07:39:18;56.65;;;25.63;;
23517;SDS011;11935;50.878;4.392;2022-11-20T07:41:44;57.50;;;24.83;;
23517;SDS011;11935;50.878;4.392;2022-11-20T07:44:10;58.22;;;26.30;;
23517;SDS011;11935;50.878;4.392;2022-11-20T07:46:36;59.67;;;25.25;;
23517;SDS011;11935;50.878;4.392;2022-11-20T07:49:02;60.28;;;26.80;;
23517;SDS011;11935;50.878;4.392;2022-11-20T07:51:28;61.17;;;25.42;;
23517;SDS011;11935;50.878;4.392;2022-11-20T07:53:54;55.85;;;25.42;;
23517;SDS011;11935;50.878;4.392;2022-11-20T07:56:20;60.95;;;27.60;;
23517;SDS011;11935;50.878;4.392;2022-11-20T07:58:46;51.83;;;24.30;;
23517;SDS011;11935;50.878;4.392;2022-11-20T08:01:12;55.40;;;24.55;;
23517;SDS011;11935;50.878;4.392;2022-11-20T08:03:38;55.20;;;24.45;;
23517;SDS011;11935;50.878;4.392;2022-11-20T08:06:04;58.33;;;24.83;;
23517;SDS011;11935;50.878;4.392;2022-11-20T08:08:31;60.08;;;26.85;;
23517;SDS011;11935;50.878;4.392;2022-11-20T08:10:57;62.90;;;25.35;;
23517;SDS011;11935;50.878;4.392;2022-11-20T08:13:42;61.63;;;26.00;;
23517;SDS011;11935;50.878;4.392;2022-11-20T08:16:26;66.63;;;28.10;;
23517;SDS011;11935;50.878;4.392;2022-11-20T08:18:53;61.50;;;25.55;;
23517;SDS011;11935;50.878;4.392;2022-11-20T08:21:19;71.47;;;29.02;;
23517;SDS011;11935;50.878;4.392;2022-11-20T08:23:45;81.65;;;36.53;;
23517;SDS011;11935;50.878;4.392;2022-11-20T08:26:11;65.05;;;26.08;;
23517;SDS011;11935;50.878;4.392;2022-11-20T08:28:37;58.67;;;24.08;;
23517;SDS011;11935;50.878;4.392;2022-11-20T08:31:03;63.50;;;26.05;;
23517;SDS011;11935;50.878;4.392;2022-11-20T08:33:29;55.20;;;23.45;;
23517;SDS011;11935;50.878;4.392;2022-11-20T08:36:01;61.03;;;24.85;;
23517;SDS011;11935;50.878;4.392;2022-11-20T08:38:27;59.08;;;27.42;;
23517;SDS011;11935;50.878;4.392;2022-11-20T08:40:56;58.83;;;25.08;;
23517;SDS011;11935;50.878;4.392;2022-11-20T08:43:40;57.83;;;22.30;;
23517;SDS011;11935;50.878;4.392;2022-11-20T08:46:12;60.55;;;24.75;;
23517;SDS011;11935;50.878;4.392;2022-11-20T08:48:38;56.33;;;23.77;;
23517;SDS011;11935;50.878;4.392;2022-11-20T08:51:04;55.35;;;22.15;;
23517;SDS011;11935;50.878;4.392;2022-11-20T08:53:31;61.30;;;23.60;;
23517;SDS011;11935;50.878;4.392;2022-11-20T08:55:57;62.22;;;24.50;;
23517;SDS011;11935;50.878;4.392;2022-11-20T08:58:23;60.67;;;24.13;;
23517;SDS011;11935;50.878;4.392;2022-11-20T09:00:49;60.72;;;24.70;;
23517;SDS011;11935;50.878;4.392;2022-11-20T09:03:15;64.88;;;27.08;;
23517;SDS011;11935;50.878;4.392;2022-11-20T09:05:41;53.40;;;21.60;;
23517;SDS011;11935;50.878;4.392;2022-11-20T09:08:08;61.63;;;25.13;;
23517;SDS011;11935;50.878;4.392;2022-11-20T09:10:34;51.28;;;23.98;;
23517;SDS011;11935;50.878;4.392;2022-11-20T09:13:01;54.13;;;23.33;;
23517;SDS011;11935;50.878;4.392;2022-11-20T09:15:27;50.90;;;21.35;;
23517;SDS011;11935;50.878;4.392;2022-11-20T09:17:54;51.72;;;22.38;;
23517;SDS011;11935;50.878;4.392;2022-11-20T09:20:20;48.53;;;21.88;;
23517;SDS011;11935;50.878;4.392;2022-11-20T09:22:46;53.25;;;22.45;;
23517;SDS011;11935;50.878;4.392;2022-11-20T09:25:12;53.17;;;22.38;;
23517;SDS011;11935;50.878;4.392;2022-11-20T09:27:38;51.90;;;22.35;;
23517;SDS011;11935;50.878;4.392;2022-11-20T09:30:06;42.60;;;19.08;;
23517;SDS011;11935;50.878;4.392;2022-11-20T09:32:32;43.55;;;19.75;;
23517;SDS011;11935;50.878;4.392;2022-11-20T09:34:58;44.55;;;19.58;;
23517;SDS011;11935;50.878;4.392;2022-11-20T09:37:24;49.17;;;21.35;;
23517;SDS011;11935;50.878;4.392;2022-11-20T09:39:51;40.78;;;19.60;;
23517;SDS011;11935;50.878;4.392;2022-11-20T09:42:21;40.75;;;18.45;;
23517;SDS011;11935;50.878;4.392;2022-11-20T09:52:28;39.15;;;17.42;;
23517;SDS011;11935;50.878;4.392;2022-11-20T09:54:58;35.08;;;16.23;;
23517;SDS011;11935;50.878;4.392;2022-11-20T09:57:31;30.60;;;16.20;;
23517;SDS011;11935;50.878;4.392;2022-11-20T10:00:03;36.53;;;17.05;;
23517;SDS011;11935;50.878;4.392;2022-11-20T10:05:56;29.27;;;15.30;;
23517;SDS011;11935;50.878;4.392;2022-11-20T10:10:56;32.47;;;15.23;;
23517;SDS011;11935;50.878;4.392;2022-11-20T10:13:24;41.08;;;20.85;;
23517;SDS011;11935;50.878;4.392;2022-11-20T10:29:17;19.05;;;9.75;;
23517;SDS011;11935;50.878;4.392;2022-11-20T10:31:46;18.42;;;10.40;;
23517;SDS011;11935;50.878;4.392;2022-11-20T10:34:18;16.23;;;8.98;;
23517;SDS011;11935;50.878;4.392;2022-11-20T10:36:55;20.70;;;8.95;;
23517;SDS011;11935;50.878;4.392;2022-11-20T10:39:35;18.85;;;8.60;;
23517;SDS011;11935;50.878;4.392;2022-11-20T10:42:03;15.25;;;7.38;;
23517;SDS011;11935;50.878;4.392;2022-11-20T10:44:34;16.88;;;8.30;;
23517;SDS011;11935;50.878;4.392;2022-11-20T10:47:20;11.10;;;7.15;;
23517;SDS011;11935;50.878;4.392;2022-11-20T10:49:48;18.33;;;7.32;;
23517;SDS011;11935;50.878;4.392;2022-11-20T10:55:38;15.25;;;6.88;;
23517;SDS011;11935;50.878;4.392;2022-11-20T10:57:50;13.75;;;7.63;;
23517;SDS011;11935;50.878;4.392;2022-11-20T11:00:19;13.20;;;6.40;;
23517;SDS011;11935;50.878;4.392;2022-11-20T11:02:49;10.82;;;5.75;;
23517;SDS011;11935;50.878;4.392;2022-11-20T11:07:44;16.63;;;7.75;;
23517;SDS011;11935;50.878;4.392;2022-11-20T11:10:18;9.15;;;4.65;;
23517;SDS011;11935;50.878;4.392;2022-11-20T11:12:47;11.70;;;4.60;;
23517;SDS011;11935;50.878;4.392;2022-11-20T11:15:14;9.90;;;4.07;;
23517;SDS011;11935;50.878;4.392;2022-11-20T11:17:50;10.60;;;4.40;;
23517;SDS011;11935;50.878;4.392;2022-11-20T11:22:46;7.15;;;3.60;;
23517;SDS011;11935;50.878;4.392;2022-11-20T11:25:55;10.20;;;3.67;;
23517;SDS011;11935;50.878;4.392;2022-11-20T11:28:19;13.13;;;4.15;;
23517;SDS011;11935;50.878;4.392;2022-11-20T11:30:46;7.22;;;3.60;;
23517;SDS011;11935;50.878;4.392;2022-11-20T11:35:53;10.18;;;3.65;;
23517;SDS011;11935;50.878;4.392;2022-11-20T11:40:53;12.40;;;3.42;;
23517;SDS011;11935;50.878;4.392;2022-11-20T11:43:20;6.65;;;3.35;;
23517;SDS011;11935;50.878;4.392;2022-11-20T11:46:20;6.18;;;2.50;;
23517;SDS011;11935;50.878;4.392;2022-11-20T11:48:55;9.70;;;3.85;;
23517;SDS011;11935;50.878;4.392;2022-11-20T11:51:22;8.60;;;3.35;;
23517;SDS011;11935;50.878;4.392;2022-11-20T11:53:49;7.68;;;3.47;;
23517;SDS011;11935;50.878;4.392;2022-11-20T11:56:16;6.00;;;3.33;;
23517;SDS011;11935;50.878;4.392;2022-11-20T11:58:48;11.40;;;3.67;;
23517;SDS011;11935;50.878;4.392;2022-11-20T12:01:35;6.20;;;3.08;;
23517;SDS011;11935;50.878;4.392;2022-11-20T12:04:10;7.05;;;4.00;;
23517;SDS011;11935;50.878;4.392;2022-11-20T12:06:41;10.00;;;3.30;;
23517;SDS011;11935;50.878;4.392;2022-11-20T12:09:09;7.85;;;3.10;;
23517;SDS011;11935;50.878;4.392;2022-11-20T12:11:46;7.32;;;3.17;;
23517;SDS011;11935;50.878;4.392;2022-11-20T12:14:17;6.68;;;2.95;;
23517;SDS011;11935;50.878;4.392;2022-11-20T12:16:48;9.45;;;3.40;;
23517;SDS011;11935;50.878;4.392;2022-11-20T12:19:15;5.55;;;2.67;;
23517;SDS011;11935;50.878;4.392;2022-11-20T12:29:54;7.28;;;2.70;;
23517;SDS011;11935;50.878;4.392;2022-11-20T12:35:27;6.03;;;2.80;;
23517;SDS011;11935;50.878;4.392;2022-11-20T12:43:22;7.38;;;3.25;;
23517;SDS011;11935;50.878;4.392;2022-11-20T12:58:46;12.15;;;4.50;;
23517;SDS011;11935;50.878;4.392;2022-11-20T13:01:30;11.20;;;3.90;;
23517;SDS011;11935;50.878;4.392;2022-11-20T13:06:39;10.07;;;4.28;;
23517;SDS011;11935;50.878;4.392;2022-11-20T13:09:09;8.30;;;3.40;;
23517;SDS011;11935;50.878;4.392;2022-11-20T13:11:45;8.13;;;3.72;;
23517;SDS011;11935;50.878;4.392;2022-11-20T13:14:33;7.28;;;3.70;;
23517;SDS011;11935;50.878;4.392;2022-11-20T13:19:31;5.25;;;3.05;;
23517;SDS011;11935;50.878;4.392;2022-11-20T13:21:59;7.50;;;4.00;;
23517;SDS011;11935;50.878;4.392;2022-11-20T13:24:32;7.90;;;3.78;;
23517;SDS011;11935;50.878;4.392;2022-11-20T13:29:30;9.10;;;4.15;;
23517;SDS011;11935;50.878;4.392;2022-11-20T13:32:03;9.68;;;3.75;;
23517;SDS011;11935;50.878;4.392;2022-11-20T13:34:31;4.80;;;3.47;;
23517;SDS011;11935;50.878;4.392;2022-11-20T13:36:58;6.22;;;3.45;;
23517;SDS011;11935;50.878;4.392;2022-11-20T13:39:36;8.32;;;3.80;;
23517;SDS011;11935;50.878;4.392;2022-11-20T13:42:03;8.52;;;4.10;;
23517;SDS011;11935;50.878;4.392;2022-11-20T13:44:54;8.40;;;4.15;;
23517;SDS011;11935;50.878;4.392;2022-11-20T13:47:29;7.15;;;4.85;;
23517;SDS011;11935;50.878;4.392;2022-11-20T13:49:55;7.45;;;4.30;;
23517;SDS011;11935;50.878;4.392;2022-11-20T14:00:20;5.88;;;3.28;;
23517;SDS011;11935;50.878;4.392;2022-11-20T14:02:59;5.35;;;2.78;;
23517;SDS011;11935;50.878;4.392;2022-11-20T14:05:27;5.95;;;2.33;;
23517;SDS011;11935;50.878;4.392;2022-11-20T14:07:54;7.95;;;2.92;;
23517;SDS011;11935;50.878;4.392;2022-11-20T14:12:49;7.78;;;2.97;;
23517;SDS011;11935;50.878;4.392;2022-11-20T14:17:51;4.80;;;3.53;;
23517;SDS011;11935;50.878;4.392;2022-11-20T14:20:17;6.22;;;4.07;;
23517;SDS011;11935;50.878;4.392;2022-11-20T14:22:48;6.57;;;4.97;;
23517;SDS011;11935;50.878;4.392;2022-11-20T14:27:42;10.02;;;4.28;;
23517;SDS011;11935;50.878;4.392;2022-11-20T14:30:16;4.85;;;2.15;;
23517;SDS011;11935;50.878;4.392;2022-11-20T14:32:43;5.68;;;3.45;;
23517;SDS011;11935;50.878;4.392;2022-11-20T14:35:10;5.80;;;4.30;;
23517;SDS011;11935;50.878;4.392;2022-11-20T14:37:39;11.73;;;5.57;;
23517;SDS011;11935;50.878;4.392;2022-11-20T14:40:26;6.15;;;4.00;;
23517;SDS011;11935;50.878;4.392;2022-11-20T14:42:52;4.97;;;3.92;;
23517;SDS011;11935;50.878;4.392;2022-11-20T14:45:19;4.43;;;3.00;;
23517;SDS011;11935;50.878;4.392;2022-11-20T14:47:45;6.55;;;3.90;;
23517;SDS011;11935;50.878;4.392;2022-11-20T14:50:12;7.43;;;4.05;;
23517;SDS011;11935;50.878;4.392;2022-11-20T14:52:40;5.35;;;3.85;;
23517;SDS011;11935;50.878;4.392;2022-11-20T14:55:24;8.80;;;4.10;;
23517;SDS011;11935;50.878;4.392;2022-11-20T14:57:54;8.18;;;4.63;;
23517;SDS011;11935;50.878;4.392;2022-11-20T15:00:20;8.65;;;4.22;;
23517;SDS011;11935;50.878;4.392;2022-11-20T15:02:48;8.43;;;4.90;;
23517;SDS011;11935;50.878;4.392;2022-11-20T15:05:15;7.43;;;4.27;;
23517;SDS011;11935;50.878;4.392;2022-11-20T15:07:43;10.05;;;4.85;;
23517;SDS011;11935;50.878;4.392;2022-11-20T15:10:20;6.40;;;4.72;;
23517;SDS011;11935;50.878;4.392;2022-11-20T15:12:47;7.38;;;5.45;;
23517;SDS011;11935;50.878;4.392;2022-11-20T15:15:19;8.23;;;5.07;;
23517;SDS011;11935;50.878;4.392;2022-11-20T15:17:46;7.30;;;4.30;;
23517;SDS011;11935;50.878;4.392;2022-11-20T15:20:13;6.70;;;4.38;;
23517;SDS011;11935;50.878;4.392;2022-11-20T15:22:40;9.70;;;4.78;;
23517;SDS011;11935;50.878;4.392;2022-11-20T15:25:13;12.10;;;5.47;;
23517;SDS011;11935;50.878;4.392;2022-11-20T15:27:40;7.85;;;5.13;;
23517;SDS011;11935;50.878;4.392;2022-11-20T15:32:39;9.00;;;4.78;;
23517;SDS011;11935;50.878;4.392;2022-11-20T15:35:05;12.45;;;5.28;;
23517;SDS011;11935;50.878;4.392;2022-11-20T15:37:31;9.35;;;5.20;;
23517;SDS011;11935;50.878;4.392;2022-11-20T15:39:58;9.93;;;5.70;;
23517;SDS011;11935;50.878;4.392;2022-11-20T15:42:23;11.77;;;5.97;;
23517;SDS011;11935;50.878;4.392;2022-11-20T15:44:50;10.48;;;5.93;;
23517;SDS011;11935;50.878;4.392;2022-11-20T15:47:16;9.30;;;5.07;;
23517;SDS011;11935;50.878;4.392;2022-11-20T15:49:42;15.10;;;7.13;;
23517;SDS011;11935;50.878;4.392;2022-11-20T15:52:09;16.35;;;5.63;;
23517;SDS011;11935;50.878;4.392;2022-11-20T15:54:35;15.57;;;6.18;;
23517;SDS011;11935;50.878;4.392;2022-11-20T15:57:01;12.50;;;5.25;;
23517;SDS011;11935;50.878;4.392;2022-11-20T15:59:28;10.00;;;4.55;;
23517;SDS011;11935;50.878;4.392;2022-11-20T16:01:54;9.02;;;3.65;;
23517;SDS011;11935;50.878;4.392;2022-11-20T16:04:20;14.15;;;4.88;;
23517;SDS011;11935;50.878;4.392;2022-11-20T16:06:46;12.38;;;4.60;;
23517;SDS011;11935;50.878;4.392;2022-11-20T16:09:12;13.93;;;5.15;;
23517;SDS011;11935;50.878;4.392;2022-11-20T16:11:38;11.48;;;4.97;;
23517;SDS011;11935;50.878;4.392;2022-11-20T16:14:04;16.08;;;5.47;;
23517;SDS011;11935;50.878;4.392;2022-11-20T16:16:49;10.05;;;4.88;;
23517;SDS011;11935;50.878;4.392;2022-11-20T16:19:16;16.13;;;3.60;;
23517;SDS011;11935;50.878;4.392;2022-11-20T16:21:43;17.10;;;4.57;;
23517;SDS011;11935;50.878;4.392;2022-11-20T16:24:10;13.40;;;4.80;;
23517;SDS011;11935;50.878;4.392;2022-11-20T16:29:04;14.32;;;3.85;;